Time;durP1;ratioP1;P1;durP2;ratioP2;P2;SDS_P1;SDS_P2;PMS_P1;PMS_P2;Temp;Humidity;BMP_temperature;BMP_pressure;BME280_temperature;BME280_humidity;BME280_pressure;Samples;Min_cycle;Max_cycle;Signal;HPM_P1;HPM_P2
2022/04/21 03:00:15;;;;;;;20.43;9.40;;;7.30;99.90;;;;;;6118346;23;20073;31
2022/04/21 03:02:41;;;;;;;17.58;9.23;;;7.30;99.90;;;;;;4994564;28;20603;-83
2022/04/21 03:05:07;;;;;;;21.70;10.68;;;7.20;99.90;;;;;;4996132;28;20042;-84
2022/04/21 03:07:32;;;;;;;17.00;10.00;;;7.20;99.90;;;;;;4996841;28;20081;-83
2022/04/21 03:09:58;;;;;;;19.13;10.23;;;7.10;99.90;;;;;;4995242;28;20443;-81
2022/04/21 03:12:26;;;;;;;16.13;9.80;;;7.10;99.90;;;;;;4995004;28;20047;-81
2022/04/21 03:14:53;;;;;;;20.00;9.63;;;7.10;99.90;;;;;;4994970;28;20054;-82
2022/04/21 03:17:19;;;;;;;18.48;9.57;;;7.10;99.90;;;;;;4978987;28;20034;-82
2022/04/21 03:19:45;;;;;;;17.88;10.13;;;7.00;99.90;;;;;;4995379;28;20128;-82
2022/04/21 03:24:58;;;;;;;17.80;10.55;;;7.00;99.90;;;;;;4995342;28;20046;-83
2022/04/21 03:27:27;;;;;;;21.35;10.10;;;7.00;99.90;;;;;;4978808;28;20520;-81
2022/04/21 03:29:53;;;;;;;20.60;10.43;;;7.00;99.90;;;;;;4995103;28;20402;-83
2022/04/21 03:32:18;;;;;;;17.20;9.68;;;7.00;99.90;;;;;;4995994;28;20039;-85
2022/04/21 03:34:44;;;;;;;22.35;11.43;;;6.90;99.90;;;;;;4994711;28;20477;-83
2022/04/21 03:37:13;;;;;;;19.05;10.57;;;7.00;99.90;;;;;;4994542;28;20069;-84
2022/04/21 03:39:39;;;;;;;18.83;10.05;;;6.90;99.90;;;;;;4978017;28;20042;-81
2022/04/21 03:42:07;;;;;;;17.80;10.05;;;6.80;99.90;;;;;;4994105;28;20061;-82
2022/04/21 03:44:39;;;;;;;21.00;10.85;;;6.80;99.90;;;;;;4994996;28;20054;-83
2022/04/21 03:47:06;;;;;;;19.25;10.95;;;6.90;99.90;;;;;;4994122;28;20053;-83
2022/04/21 03:49:32;;;;;;;16.10;9.93;;;6.80;99.90;;;;;;4994757;28;20082;-83
2022/04/21 03:51:57;;;;;;;21.38;11.40;;;6.80;99.90;;;;;;4996292;28;20072;-82
2022/04/21 03:54:23;;;;;;;18.10;10.73;;;6.80;99.90;;;;;;4994818;28;20069;-83
2022/04/21 03:56:50;;;;;;;20.10;10.40;;;6.80;99.90;;;;;;4994642;28;20042;-83
2022/04/21 03:59:17;;;;;;;19.85;10.50;;;6.80;99.90;;;;;;4994786;28;20038;-82
2022/04/21 04:01:43;;;;;;;18.65;10.57;;;6.80;99.90;;;;;;4978234;28;20049;-83
2022/04/21 04:04:09;;;;;;;21.10;10.70;;;6.80;99.90;;;;;;4978446;28;20046;-81
2022/04/21 04:12:06;;;;;;;18.05;10.68;;;6.80;99.90;;;;;;4993951;28;20429;-84
2022/04/21 04:14:32;;;;;;;19.10;10.55;;;6.80;99.90;;;;;;4994513;28;20038;-82
2022/04/21 04:16:58;;;;;;;20.63;10.77;;;6.70;99.90;;;;;;4995864;28;20447;-83
2022/04/21 04:19:23;;;;;;;20.08;10.60;;;6.70;99.90;;;;;;4977871;28;20042;-81
2022/04/21 04:21:49;;;;;;;21.33;11.18;;;6.70;99.90;;;;;;4993758;28;20399;-82
2022/04/21 04:24:16;;;;;;;18.23;10.70;;;6.70;99.90;;;;;;4977488;28;20046;-82
2022/04/21 04:26:41;;;;;;;19.67;10.45;;;6.70;99.90;;;;;;4994203;28;20053;-81
2022/04/21 04:29:07;;;;;;;19.75;10.77;;;6.60;99.90;;;;;;4994452;28;20482;-82
2022/04/21 04:31:33;;;;;;;19.60;11.02;;;6.60;99.90;;;;;;4994449;28;20402;-81
2022/04/21 04:33:59;;;;;;;24.23;11.15;;;6.50;99.90;;;;;;4995513;28;20046;-85
2022/04/21 04:36:25;;;;;;;20.95;10.73;;;6.50;99.90;;;;;;4993845;28;20437;-84
2022/04/21 04:38:51;;;;;;;23.23;11.32;;;6.50;99.90;;;;;;4993839;28;20050;-81
2022/04/21 04:44:02;;;;;;;19.40;10.90;;;6.40;99.90;;;;;;4993695;28;20038;-81
2022/04/21 04:46:37;;;;;;;23.90;10.85;;;6.40;99.90;;;;;;4993666;28;20161;-83
2022/04/21 04:49:10;;;;;;;;;;;6.40;99.90;;;;;;4994006;28;20038;-81
2022/04/21 04:51:38;;;;;;;23.73;11.05;;;6.40;99.90;;;;;;4993906;28;19989;-81
2022/04/21 04:54:07;;;;;;;24.60;12.02;;;6.40;99.90;;;;;;4993544;28;20050;-84
2022/04/21 04:56:33;;;;;;;20.02;12.27;;;6.40;99.90;;;;;;4993351;28;20077;-83
2022/04/21 04:59:00;;;;;;;22.73;12.45;;;6.40;99.90;;;;;;4993595;28;20042;-82
2022/04/21 05:01:31;;;;;;;22.85;12.18;;;6.40;99.90;;;;;;4992967;28;20453;-83
2022/04/21 05:04:05;;;;;;;21.33;11.70;;;6.40;99.90;;;;;;4993200;28;20574;-83
2022/04/21 05:06:36;;;;;;;25.08;12.77;;;6.40;99.90;;;;;;4977093;28;20129;-83
2022/04/21 05:09:06;;;;;;;21.70;12.05;;;6.40;99.90;;;;;;4992634;28;20070;-83
2022/04/21 05:11:33;;;;;;;23.58;12.07;;;6.40;99.90;;;;;;4993324;28;20031;-83
2022/04/21 05:14:00;;;;;;;22.55;13.10;;;6.40;99.90;;;;;;4994246;28;20447;-82
2022/04/21 05:16:25;;;;;;;22.42;12.02;;;6.40;99.90;;;;;;4977094;28;20406;-82
2022/04/21 05:18:52;;;;;;;22.42;12.65;;;6.50;99.90;;;;;;4994716;28;20038;-82
2022/04/21 05:21:17;;;;;;;19.42;11.77;;;6.50;99.90;;;;;;4976909;28;20045;-83
2022/04/21 05:23:47;;;;;;;21.00;12.60;;;6.50;99.90;;;;;;4993259;28;20043;-82
2022/04/21 05:26:14;;;;;;;22.23;11.82;;;6.50;99.90;;;;;;4994579;28;20034;-81
2022/04/21 05:28:40;;;;;;;22.73;12.15;;;6.60;99.90;;;;;;4993361;28;20390;-82
2022/04/21 05:31:07;;;;;;;22.65;12.15;;;6.60;99.90;;;;;;4992959;28;20090;-83
2022/04/21 05:33:35;;;;;;;20.70;12.13;;;6.60;99.90;;;;;;4976311;28;20563;-82
2022/04/21 05:36:01;;;;;;;21.85;12.07;;;6.60;99.90;;;;;;4993039;28;20520;-82
2022/04/21 05:38:27;;;;;;;21.20;12.23;;;6.70;99.90;;;;;;4992892;28;20034;-82
2022/04/21 05:40:54;;;;;;;22.85;12.70;;;6.70;99.90;;;;;;4992689;28;20478;-82
2022/04/21 05:43:20;;;;;;;22.10;12.60;;;6.70;99.90;;;;;;4994387;28;20042;-83
2022/04/21 05:45:47;;;;;;;22.60;12.65;;;6.70;99.90;;;;;;4992898;28;20363;-83
2022/04/21 05:48:16;;;;;;;21.35;12.00;;;6.70;99.90;;;;;;4992912;28;20046;-82
2022/04/21 05:50:48;;;;;;;24.10;13.32;;;6.80;99.90;;;;;;4993190;28;20461;-81
2022/04/21 05:53:25;;;;;;;19.20;11.23;;;6.80;99.90;;;;;;4976582;28;20092;-82
2022/04/21 05:55:51;;;;;;;26.17;12.48;;;6.90;99.90;;;;;;4992835;28;20050;-82
2022/04/21 05:58:18;;;;;;;18.95;11.32;;;6.90;99.90;;;;;;4992806;28;20474;-83
2022/04/21 06:00:43;;;;;;;21.73;11.27;;;7.00;99.90;;;;;;4992624;28;20043;-80
2022/04/21 06:03:11;;;;;;;23.10;12.00;;;7.00;99.90;;;;;;4993194;28;20455;-84
2022/04/21 06:05:37;;;;;;;19.35;10.80;;;7.00;99.90;;;;;;4992832;28;20454;-83
2022/04/21 06:08:03;;;;;;;20.73;10.70;;;7.10;99.90;;;;;;4994901;28;20088;-82
2022/04/21 06:10:29;;;;;;;18.00;9.80;;;7.20;99.90;;;;;;4994094;28;20049;-81
2022/04/21 06:12:55;;;;;;;21.05;11.20;;;7.20;99.90;;;;;;4993140;28;20046;-83
2022/04/21 06:15:20;;;;;;;16.50;9.68;;;7.30;99.90;;;;;;4992872;28;20054;-84
2022/04/21 06:17:46;;;;;;;16.88;9.98;;;7.30;99.90;;;;;;4976565;28;20039;-82
2022/04/21 06:20:12;;;;;;;22.50;10.85;;;7.40;99.90;;;;;;4992521;28;20093;-81
2022/04/21 06:22:37;;;;;;;16.35;10.30;;;7.40;99.90;;;;;;4997177;28;20109;-82
2022/04/21 06:25:03;;;;;;;18.27;9.70;;;7.50;99.90;;;;;;4995878;28;20053;-83
2022/04/21 06:27:29;;;;;;;15.52;9.27;;;7.60;99.90;;;;;;4995959;28;20102;-80
2022/04/21 06:29:54;;;;;;;21.02;9.88;;;7.60;99.90;;;;;;4996610;28;20057;-82
2022/04/21 06:32:20;;;;;;;16.42;9.30;;;7.70;99.90;;;;;;4980291;28;20047;-82
2022/04/21 06:34:46;;;;;;;14.00;8.00;;;7.80;99.90;;;;;;4996232;28;20047;-84
2022/04/21 06:37:11;;;;;;;12.05;8.02;;;7.90;99.90;;;;;;4996560;28;20042;-82
2022/04/21 06:39:37;;;;;;;13.75;7.85;;;8.00;99.90;;;;;;5000119;28;20030;-82
2022/04/21 06:42:03;;;;;;;12.82;7.75;;;8.10;99.90;;;;;;4996876;28;20078;-78
2022/04/21 06:49:56;;;;;;;14.93;6.70;;;8.40;99.90;;;;;;5006926;28;20050;-84
2022/04/21 06:52:22;;;;;;;12.40;6.72;;;8.50;99.90;;;;;;4996002;28;20092;-81
2022/04/21 06:54:48;;;;;;;14.45;6.93;;;8.60;99.90;;;;;;4997369;28;20042;-81
2022/04/21 06:57:14;;;;;;;12.07;6.55;;;8.70;99.90;;;;;;4995860;28;20038;-81
2022/04/21 06:59:39;;;;;;;14.73;5.63;;;8.90;99.90;;;;;;4995818;28;20034;-84
2022/04/21 07:02:05;;;;;;;10.57;5.50;;;9.00;99.90;;;;;;4995218;28;20510;-81
2022/04/21 07:04:31;;;;;;;10.30;5.28;;;9.10;99.90;;;;;;4995848;28;20052;-80
2022/04/21 07:06:56;;;;;;;8.60;4.90;;;9.20;99.90;;;;;;4995850;28;20099;-83
2022/04/21 07:09:22;;;;;;;9.05;4.90;;;9.30;99.90;;;;;;4997208;28;20181;-81
2022/04/21 07:11:48;;;;;;;11.02;4.75;;;9.50;99.90;;;;;;4995482;28;20038;-82
2022/04/21 07:14:13;;;;;;;6.72;3.80;;;9.60;99.90;;;;;;4995898;28;20052;-85
2022/04/21 07:16:39;;;;;;;6.38;3.97;;;9.70;99.90;;;;;;4995900;28;20498;-84
2022/04/21 07:19:05;;;;;;;8.27;4.00;;;9.80;99.90;;;;;;4996719;28;20501;-82
2022/04/21 07:21:30;;;;;;;9.57;4.18;;;9.80;99.90;;;;;;4996799;28;20458;-81
2022/04/21 07:23:56;;;;;;;6.97;3.50;;;9.90;99.90;;;;;;4979285;28;20034;-82
2022/04/21 07:26:22;;;;;;;6.85;3.30;;;10.00;99.90;;;;;;4979878;28;20038;-83
2022/04/21 07:28:47;;;;;;;9.02;3.47;;;10.10;99.90;;;;;;4995265;28;20038;-83
2022/04/21 07:31:13;;;;;;;6.50;3.13;;;10.20;99.90;;;;;;4995100;28;20046;-83
2022/04/21 07:33:39;;;;;;;6.05;2.45;;;10.40;99.90;;;;;;4994199;28;20042;-82
2022/04/21 07:36:05;;;;;;;5.50;2.63;;;10.50;99.90;;;;;;4994414;28;20100;-83
2022/04/21 07:38:31;;;;;;;5.35;2.90;;;10.60;99.90;;;;;;4995601;28;20049;-81
2022/04/21 07:40:57;;;;;;;4.60;2.70;;;10.70;99.90;;;;;;4994029;28;20072;-83
2022/04/21 07:43:23;;;;;;;6.93;2.55;;;10.80;99.90;;;;;;4978403;28;20053;-81
2022/04/21 07:45:51;;;;;;;7.20;3.15;;;11.00;99.90;;;;;;4994482;28;20046;-80
2022/04/21 07:48:17;;;;;;;5.40;2.33;;;11.10;99.90;;;;;;4995471;28;20053;-84
2022/04/21 07:50:43;;;;;;;5.57;2.55;;;11.20;99.90;;;;;;4994476;28;20038;-83
2022/04/21 07:53:15;;;;;;;7.65;3.10;;;11.30;99.90;;;;;;4995419;28;20049;-82
2022/04/21 07:55:42;;;;;;;32.83;8.05;;;11.40;99.90;;;;;;4994307;28;20053;-83
2022/04/21 07:58:08;;;;;;;5.75;3.08;;;11.50;99.90;;;;;;4993965;28;20048;-81
2022/04/21 08:00:36;;;;;;;4.68;2.80;;;11.50;99.90;;;;;;4994283;28;20069;-81
2022/04/21 08:03:03;;;;;;;6.50;3.30;;;11.60;99.90;;;;;;4978587;28;20546;-81
2022/04/21 08:05:28;;;;;;;7.40;3.40;;;11.70;99.90;;;;;;4994276;28;20053;-81
2022/04/21 08:07:54;;;;;;;4.80;2.67;;;11.80;99.90;;;;;;4994335;28;20046;-84
2022/04/21 08:10:20;;;;;;;10.43;3.40;;;11.90;99.90;;;;;;4994355;28;20082;-85
2022/04/21 08:12:51;;;;;;;12.95;3.10;;;12.10;99.90;;;;;;4994242;28;20121;-81
2022/04/21 08:15:28;;;;;;;3.88;2.40;;;12.20;99.90;;;;;;4977584;28;20042;-83
2022/04/21 08:17:55;;;;;;;7.93;2.55;;;12.30;99.90;;;;;;4995611;28;20478;-82
2022/04/21 08:20:22;;;;;;;5.93;2.28;;;12.40;99.90;;;;;;4993509;28;20072;-81
2022/04/21 08:22:48;;;;;;;62.60;7.60;;;12.50;99.90;;;;;;4994408;28;20450;-84
2022/04/21 08:33:27;;;;;;;4.10;2.60;;;13.90;99.90;;;;;;4993664;28;20078;-82
2022/04/21 08:35:58;;;;;;;5.05;2.53;;;15.10;99.90;;;;;;4994365;28;20053;-84
2022/04/21 08:38:29;;;;;;;8.38;2.92;;;15.70;99.90;;;;;;4993105;28;20034;-80
2022/04/21 08:40:57;;;;;;;7.07;2.45;;;16.00;99.90;;;;;;4976983;28;20042;-82
2022/04/21 08:43:27;;;;;;;4.60;2.58;;;16.30;99.90;;;;;;4994440;28;20097;-84
2022/04/21 08:45:54;;;;;;;9.35;2.47;;;16.60;99.90;;;;;;4992922;28;20137;-82
2022/04/21 08:48:22;;;;;;;5.68;2.97;;;16.90;99.90;;;;;;4993350;28;20050;-81
2022/04/21 08:50:48;;;;;;;5.13;2.25;;;16.90;99.90;;;;;;4993659;28;20050;-83
2022/04/21 08:53:23;;;;;;;3.45;2.38;;;16.90;99.90;;;;;;4977378;28;20096;-84
2022/04/21 08:55:50;;;;;;;7.47;2.42;;;17.00;99.90;;;;;;4993739;28;20115;-82
2022/04/21 08:58:16;;;;;;;5.03;2.33;;;16.70;99.90;;;;;;4993399;28;20605;-82
2022/04/21 09:00:43;;;;;;;4.82;2.17;;;16.30;99.90;;;;;;4977127;28;20097;-83
2022/04/21 09:03:10;;;;;;;3.88;2.38;;;16.20;99.90;;;;;;4993764;28;20073;-82
2022/04/21 09:05:36;;;;;;;5.40;2.75;;;16.30;99.90;;;;;;4993173;28;20405;-83
2022/04/21 09:08:03;;;;;;;5.03;2.60;;;16.50;99.90;;;;;;4993234;28;20050;-82
2022/04/21 09:10:32;;;;;;;4.53;2.60;;;16.70;99.90;;;;;;4992783;28;20498;-80
2022/04/21 09:12:59;;;;;;;6.47;2.38;;;16.80;99.90;;;;;;4992486;28;20046;-82
2022/04/21 09:15:27;;;;;;;5.32;2.33;;;17.00;99.90;;;;;;4994164;28;20117;-82
2022/04/21 09:17:58;;;;;;;6.05;2.58;;;17.10;99.40;;;;;;4994399;28;20390;-84
2022/04/21 09:20:26;;;;;;;3.75;2.33;;;17.00;99.80;;;;;;4992959;28;20091;-83
2022/04/21 09:23:01;;;;;;;4.80;2.15;;;16.90;99.90;;;;;;4992722;28;20129;-82
2022/04/21 09:25:29;;;;;;;5.18;2.50;;;16.70;99.60;;;;;;4992888;28;20542;-84
2022/04/21 09:27:56;;;;;;;5.03;2.40;;;16.70;99.90;;;;;;4992905;28;20069;-83
2022/04/21 09:30:22;;;;;;;5.63;2.40;;;16.60;99.90;;;;;;4993265;28;20049;-81
2022/04/21 09:32:55;;;;;;;5.10;2.38;;;16.60;99.60;;;;;;4993400;28;20073;-83
2022/04/21 09:35:28;;;;;;;4.93;2.70;;;16.70;99.10;;;;;;4993346;28;20050;-84
2022/04/21 09:37:55;;;;;;;4.40;2.33;;;16.70;99.30;;;;;;4977592;28;20368;-84
2022/04/21 09:40:24;;;;;;;4.88;2.38;;;16.80;98.90;;;;;;4993467;28;20046;-83
2022/04/21 09:42:57;;;;;;;3.70;2.08;;;16.90;98.30;;;;;;4977028;28;20097;-83
2022/04/21 09:48:21;;;;;;;6.32;2.33;;;17.30;97.50;;;;;;4993133;28;20046;-82
2022/04/21 09:50:51;;;;;;;7.88;2.90;;;17.50;96.40;;;;;;4976817;28;20434;-84
2022/04/21 09:53:25;;;;;;;4.45;2.75;;;17.60;96.60;;;;;;4992793;28;20493;-84
2022/04/21 09:56:06;;;;;;;5.35;2.55;;;17.80;96.00;;;;;;4994184;28;20082;-83
2022/04/21 09:58:36;;;;;;;6.28;2.40;;;17.90;95.60;;;;;;4996582;28;20545;-82
2022/04/21 10:01:03;;;;;;;5.68;2.50;;;18.10;95.30;;;;;;4996520;28;20038;-82
2022/04/21 10:03:33;;;;;;;5.28;2.50;;;18.20;95.10;;;;;;4996384;28;20084;-83
2022/04/21 10:05:59;;;;;;;7.82;2.63;;;18.20;95.00;;;;;;4996416;28;20046;-84
2022/04/21 10:08:25;;;;;;;3.92;2.30;;;18.30;94.70;;;;;;4995972;28;20053;-82
2022/04/21 10:10:53;;;;;;;6.78;2.30;;;18.30;93.90;;;;;;4995953;28;20042;-83
2022/04/21 10:13:19;;;;;;;4.38;2.40;;;18.40;94.00;;;;;;4979570;28;20462;-81
2022/04/21 10:15:45;;;;;;;3.00;1.95;;;18.60;94.30;;;;;;4995988;28;20078;-83
2022/04/21 10:18:16;;;;;;;4.55;2.25;;;18.70;93.90;;;;;;4998118;28;20389;-83
2022/04/21 10:20:44;;;;;;;4.10;2.00;;;18.80;93.30;;;;;;4997410;28;20039;-84
2022/04/21 10:23:15;;;;;;;5.55;2.67;;;18.90;92.50;;;;;;4979584;28;20046;-82
2022/04/21 10:25:41;;;;;;;5.47;2.60;;;18.90;91.90;;;;;;4979930;28;20402;-82
2022/04/21 10:28:39;;;;;;;5.10;2.25;;;18.90;91.60;;;;;;4995664;28;20046;-82
2022/04/21 10:31:28;;;;;;;5.95;2.65;;;19.00;90.40;;;;;;4979332;28;20046;-83
2022/04/21 10:34:18;;;;;;;4.03;2.38;;;18.90;88.40;;;;;;4995607;28;20050;-80
2022/04/21 10:36:47;;;;;;;6.70;2.63;;;18.90;86.30;;;;;;4968305;28;20105;-83
2022/04/21 10:39:27;;;;;;;6.03;2.50;;;19.00;86.40;;;;;;4995343;28;20077;-82
2022/04/21 10:42:15;;;;;;;6.10;2.20;;;19.00;86.40;;;;;;4995559;28;20049;-83
2022/04/21 10:44:45;;;;;;;5.78;2.40;;;19.20;84.10;;;;;;4995886;28;20046;-82
2022/04/21 10:47:41;;;;;;;5.28;1.95;;;19.30;84.10;;;;;;4996038;28;20125;-82
2022/04/21 10:50:10;;;;;;;;;;;19.40;83.90;;;;;;4996284;28;20041;-84
2022/04/21 10:57:51;;;;;;;3.25;1.98;;;19.50;81.00;;;;;;4996091;28;20137;-84
2022/04/21 11:00:28;;;;;;;5.63;2.40;;;19.70;81.10;;;;;;4995962;28;20085;-84
2022/04/21 11:03:08;;;;;;;5.35;2.00;;;19.80;81.60;;;;;;4996133;28;20084;-84
2022/04/21 11:05:40;;;;;;;4.97;2.20;;;19.80;76.10;;;;;;4995633;28;20046;-84
2022/04/21 11:08:14;;;;;;;4.35;2.30;;;19.90;79.20;;;;;;4978322;28;20130;-82
2022/04/21 11:10:43;;;;;;;4.82;2.40;;;19.90;78.10;;;;;;4995626;28;20042;-83
2022/04/21 11:13:17;;;;;;;3.92;2.20;;;20.00;78.90;;;;;;4995566;28;20042;-83
2022/04/21 11:15:49;;;;;;;5.78;2.17;;;20.10;79.20;;;;;;4995797;28;20051;-81
2022/04/21 11:18:28;;;;;;;6.72;2.22;;;20.20;78.20;;;;;;4995232;28;20034;-81
2022/04/21 11:21:26;;;;;;;4.60;2.15;;;20.30;78.10;;;;;;4994731;28;20129;-82
2022/04/21 11:23:52;;;;;;;5.15;2.30;;;20.40;74.00;;;;;;4979293;28;20137;-83
2022/04/21 11:26:25;;;;;;;6.22;2.40;;;20.50;75.00;;;;;;4994890;28;20129;-84
2022/04/21 11:28:51;;;;;;;4.25;2.33;;;20.50;75.60;;;;;;4994637;28;20046;-83
2022/04/21 11:31:20;;;;;;;4.35;2.40;;;20.60;74.30;;;;;;4995795;28;20038;-84
2022/04/21 11:33:46;;;;;;;5.28;2.35;;;20.90;73.60;;;;;;4996625;28;20382;-82
2022/04/21 11:36:14;;;;;;;4.53;2.30;;;20.90;74.20;;;;;;4995543;28;20046;-83
2022/04/21 11:38:41;;;;;;;5.50;2.92;;;21.10;73.10;;;;;;4996666;28;20050;-85
2022/04/21 11:41:09;;;;;;;4.68;2.35;;;21.20;71.80;;;;;;4994958;28;20093;-82
2022/04/21 11:43:35;;;;;;;5.97;2.45;;;21.30;71.40;;;;;;4995182;28;20046;-84
2022/04/21 11:46:06;;;;;;;6.07;2.90;;;21.40;70.40;;;;;;4995250;28;20129;-85
2022/04/21 11:48:37;;;;;;;6.95;2.67;;;21.50;70.00;;;;;;4994894;28;20054;-85
2022/04/21 11:51:04;;;;;;;4.40;2.90;;;21.50;69.00;;;;;;4994915;28;20399;-83
2022/04/21 11:53:36;;;;;;;7.40;3.10;;;21.50;68.90;;;;;;4994360;28;20049;-83
2022/04/21 11:56:05;;;;;;;5.93;3.10;;;21.60;69.50;;;;;;4996139;28;20081;-80
2022/04/21 11:58:34;;;;;;;5.25;2.60;;;21.70;69.10;;;;;;4993834;28;20041;-83
2022/04/21 12:07:03;;;;;;;4.45;2.90;;;21.70;66.70;;;;;;4993795;28;20506;-82
2022/04/21 12:09:35;;;;;;;4.13;2.70;;;21.60;66.00;;;;;;4994241;28;20048;-83
2022/04/21 12:12:03;;;;;;;4.40;2.80;;;21.60;64.90;;;;;;4995816;28;20038;-82
2022/04/21 12:14:29;;;;;;;7.85;2.88;;;21.70;64.80;;;;;;4994855;28;20046;-82
2022/04/21 12:17:06;;;;;;;4.68;2.60;;;21.80;66.10;;;;;;4994466;28;20514;-82
2022/04/21 12:19:44;;;;;;;4.47;2.30;;;22.00;66.50;;;;;;5000688;28;20042;-81
2022/04/21 12:22:18;;;;;;;6.68;2.80;;;22.20;65.20;;;;;;5009127;28;20046;-77
2022/04/21 12:24:48;;;;;;;5.68;2.72;;;21.90;64.50;;;;;;5011332;28;20054;-84
2022/04/21 12:27:15;;;;;;;5.03;2.90;;;21.80;62.80;;;;;;4996377;28;20076;-82
2022/04/21 12:29:57;;;;;;;5.57;2.72;;;21.60;63.80;;;;;;4994878;28;20057;-82
2022/04/21 12:32:29;;;;;;;5.15;3.08;;;21.40;65.30;;;;;;4994429;28;20042;-83
2022/04/21 12:34:56;;;;;;;6.32;2.80;;;21.30;65.30;;;;;;4994277;28;20081;-82
2022/04/21 12:37:30;;;;;;;4.50;2.53;;;21.30;64.60;;;;;;4994309;28;20046;-82
2022/04/21 12:39:57;;;;;;;3.05;2.30;;;21.50;64.10;;;;;;4994040;28;20050;-83
2022/04/21 12:42:23;;;;;;;4.50;2.55;;;21.50;63.70;;;;;;4995027;28;20513;-81
2022/04/21 12:44:50;;;;;;;4.20;2.20;;;21.60;63.80;;;;;;4995346;28;20042;-81
2022/04/21 12:47:18;;;;;;;3.97;2.03;;;21.70;62.60;;;;;;4994727;28;20077;-83
2022/04/21 12:50:06;;;;;;;6.22;2.10;;;21.60;62.50;;;;;;4993605;28;20049;-83
2022/04/21 12:52:52;;;;;;;5.55;2.85;;;21.70;61.80;;;;;;4993407;28;20096;-85
2022/04/21 12:55:20;;;;;;;4.70;2.30;;;21.80;61.30;;;;;;4993788;28;20125;-84
2022/04/21 12:58:01;;;;;;;3.33;2.00;;;21.80;61.90;;;;;;4977035;28;20046;-81
2022/04/21 13:00:27;;;;;;;4.78;2.17;;;22.10;62.00;;;;;;4976987;28;20038;-84
2022/04/21 13:02:53;;;;;;;4.78;2.10;;;22.20;61.50;;;;;;4993957;28;20050;-82
2022/04/21 13:05:18;;;;;;;6.45;2.35;;;22.30;61.40;;;;;;4993033;28;20386;-81
2022/04/21 13:07:44;;;;;;;4.95;2.30;;;22.20;60.40;;;;;;4993471;28;20042;-82
2022/04/21 13:10:10;;;;;;;4.97;2.30;;;22.20;61.20;;;;;;4993505;28;20545;-84
2022/04/21 13:12:35;;;;;;;5.55;2.40;;;22.10;60.50;;;;;;4993131;28;20088;-83
2022/04/21 13:15:04;;;;;;;4.43;2.00;;;22.30;61.20;;;;;;4993481;28;20034;-81
2022/04/21 13:17:29;;;;;;;4.75;2.20;;;22.30;59.20;;;;;;4993550;28;20042;-82
2022/04/21 13:19:55;;;;;;;5.63;3.22;;;22.10;58.30;;;;;;4994621;28;20371;-81
2022/04/21 13:22:21;;;;;;;4.15;2.67;;;21.90;57.70;;;;;;4993430;28;20121;-84
2022/04/21 13:24:46;;;;;;;4.57;2.33;;;21.80;58.20;;;;;;4977194;28;20482;-85
2022/04/21 13:27:15;;;;;;;5.25;2.40;;;21.80;58.60;;;;;;4993618;28;20391;-83
2022/04/21 13:29:41;;;;;;;3.80;2.53;;;21.70;59.20;;;;;;4993530;28;20045;-80
2022/04/21 13:34:51;;;;;;;6.80;3.13;;;21.60;60.20;;;;;;4997410;28;20434;-79
2022/04/21 13:37:17;;;;;;;4.88;2.97;;;21.50;60.20;;;;;;4996941;28;20122;-84
2022/04/21 13:39:42;;;;;;;7.03;3.10;;;21.40;60.10;;;;;;4981156;28;20100;-84
2022/04/21 13:42:08;;;;;;;5.30;2.72;;;21.50;61.10;;;;;;4997247;28;20042;-84
2022/04/21 13:44:34;;;;;;;7.22;3.85;;;21.60;61.30;;;;;;4980950;28;20423;-83
2022/04/21 13:47:00;;;;;;;7.20;3.83;;;21.70;61.90;;;;;;4998522;28;20056;-82
2022/04/21 13:49:25;;;;;;;7.57;3.10;;;21.60;62.10;;;;;;4997549;28;20038;-82
2022/04/21 13:51:51;;;;;;;6.13;3.45;;;21.80;62.20;;;;;;4997368;28;20487;-85
2022/04/21 13:54:18;;;;;;;5.93;3.38;;;21.90;61.90;;;;;;4998806;28;20495;-81
2022/04/21 13:56:45;;;;;;;8.48;3.90;;;21.80;61.60;;;;;;4997465;28;20050;-82
2022/04/21 13:59:11;;;;;;;4.25;3.10;;;21.70;62.00;;;;;;4996382;28;20479;-84
2022/04/21 14:01:37;;;;;;;5.10;3.50;;;21.80;62.10;;;;;;4996800;28;20045;-82
2022/04/21 14:04:03;;;;;;;6.60;3.38;;;22.00;62.70;;;;;;4997439;28;20467;-84
2022/04/21 14:06:29;;;;;;;5.47;2.90;;;22.20;62.20;;;;;;4997997;28;20046;-82
2022/04/21 14:08:55;;;;;;;5.80;2.80;;;22.40;62.30;;;;;;4997051;28;20585;-84
2022/04/21 14:11:22;;;;;;;5.85;3.30;;;22.60;62.30;;;;;;4996730;28;20049;-84
2022/04/21 14:13:48;;;;;;;5.03;3.10;;;22.80;62.00;;;;;;4996548;28;20076;-81
2022/04/21 14:16:15;;;;;;;5.45;3.28;;;22.70;61.40;;;;;;4996436;28;20046;-84
2022/04/21 14:18:40;;;;;;;5.55;3.35;;;22.60;60.60;;;;;;4997909;28;20042;-85
2022/04/21 14:21:07;;;;;;;5.85;3.72;;;22.60;61.30;;;;;;4996209;28;20041;-86
2022/04/21 14:23:36;;;;;;;5.72;3.38;;;22.70;61.30;;;;;;4979445;28;20042;-82
2022/04/21 14:26:11;;;;;;;6.60;3.70;;;22.70;61.20;;;;;;4996542;28;20112;-84
2022/04/21 14:28:39;;;;;;;6.75;3.33;;;22.70;61.20;;;;;;4996350;28;20410;-82
2022/04/21 14:31:09;;;;;;;8.20;3.45;;;22.50;61.30;;;;;;4996307;28;20038;-83
2022/04/21 14:33:36;;;;;;;5.63;3.40;;;22.40;61.10;;;;;;4996408;28;20517;-83
2022/04/21 14:36:06;;;;;;;5.68;3.55;;;22.40;61.00;;;;;;4997870;28;20391;-80
2022/04/21 14:44:13;;;;;;;5.20;3.37;;;22.70;61.00;;;;;;4995961;28;20482;-85
2022/04/21 14:46:45;;;;;;;5.35;3.60;;;22.80;60.60;;;;;;4979536;28;20046;-82
2022/04/21 14:49:12;;;;;;;6.53;3.95;;;22.70;60.30;;;;;;4995603;28;20044;-83
2022/04/21 14:51:39;;;;;;;5.90;3.72;;;22.30;60.20;;;;;;4995965;28;20121;-85
2022/04/21 14:54:05;;;;;;;5.35;3.38;;;22.20;61.50;;;;;;4996253;28;20506;-83
2022/04/21 14:56:33;;;;;;;6.50;3.92;;;22.00;62.30;;;;;;4996135;28;20130;-82
2022/04/21 14:58:59;;;;;;;6.00;4.10;;;21.80;62.30;;;;;;4995861;28;20101;-83
2022/04/21 15:01:25;;;;;;;6.55;3.83;;;21.70;61.70;;;;;;4995754;28;20054;-82
2022/04/21 15:03:51;;;;;;;8.65;3.90;;;21.90;61.90;;;;;;4995745;28;20046;-85
2022/04/21 15:06:17;;;;;;;6.85;3.67;;;22.20;62.30;;;;;;4996147;28;20053;-83
2022/04/21 15:08:42;;;;;;;9.85;4.00;;;22.50;62.00;;;;;;4995795;28;20045;-82
2022/04/21 15:11:09;;;;;;;5.72;3.92;;;22.60;62.60;;;;;;4979277;28;20046;-79
2022/04/21 15:13:35;;;;;;;8.20;3.92;;;22.80;62.40;;;;;;4995034;28;20047;-84
2022/04/21 15:16:01;;;;;;;6.32;3.83;;;23.00;62.40;;;;;;4996148;28;20050;-84
2022/04/21 15:18:28;;;;;;;8.73;4.30;;;23.30;61.20;;;;;;4997161;28;20395;-85
2022/04/21 15:20:55;;;;;;;7.72;3.67;;;23.40;60.00;;;;;;4995698;28;20499;-82
2022/04/21 15:23:20;;;;;;;6.43;3.90;;;23.40;59.80;;;;;;4996417;28;20181;-82
2022/04/21 15:25:46;;;;;;;8.13;4.22;;;23.00;59.70;;;;;;4995916;28;20070;-81
2022/04/21 15:28:12;;;;;;;8.10;4.32;;;22.60;59.20;;;;;;4996368;28;20144;-83
2022/04/21 15:30:40;;;;;;;5.20;4.03;;;22.20;59.80;;;;;;4995758;28;20491;-83
2022/04/21 15:33:09;;;;;;;7.60;4.07;;;21.80;61.00;;;;;;4995826;28;20046;-82
2022/04/21 15:35:35;;;;;;;6.70;4.07;;;21.40;61.60;;;;;;4997532;28;20046;-83
2022/04/21 15:38:01;;;;;;;7.72;4.38;;;21.10;62.80;;;;;;4996828;28;20497;-83
2022/04/21 15:40:27;;;;;;;8.70;4.50;;;20.90;62.70;;;;;;4996038;28;20076;-82
2022/04/21 15:42:53;;;;;;;8.65;4.43;;;20.80;63.10;;;;;;4995674;28;20038;-86
2022/04/21 15:45:19;;;;;;;7.10;4.60;;;20.80;63.50;;;;;;4995864;28;20042;-84
2022/04/21 15:47:45;;;;;;;10.93;4.63;;;20.80;64.50;;;;;;4995675;28;20084;-84
2022/04/21 15:50:11;;;;;;;7.88;4.78;;;20.70;64.90;;;;;;4995560;28;20050;-84
2022/04/21 15:52:40;;;;;;;9.48;4.55;;;20.80;64.80;;;;;;4979381;28;20042;-82
2022/04/21 16:00:55;;;;;;;8.40;5.00;;;21.00;65.00;;;;;;4939472;29;20086;-83
2022/04/21 16:03:21;;;;;;;8.52;5.07;;;21.00;65.60;;;;;;4971087;28;20532;-82
2022/04/21 16:05:46;;;;;;;11.60;5.30;;;21.00;66.20;;;;;;4995333;28;20047;-83
2022/04/21 16:08:18;;;;;;;7.80;5.13;;;20.80;65.90;;;;;;4996958;28;20092;-85
2022/04/21 16:10:44;;;;;;;10.02;5.03;;;20.60;66.90;;;;;;4996192;28;20034;-85
2022/04/21 16:13:09;;;;;;;13.65;6.30;;;20.50;67.50;;;;;;4978692;28;20072;-85
2022/04/21 16:15:35;;;;;;;9.13;5.57;;;20.40;68.00;;;;;;4996412;28;20049;-83
2022/04/21 16:18:01;;;;;;;8.50;5.30;;;20.20;68.80;;;;;;4996611;28;20041;-82
2022/04/21 16:20:27;;;;;;;10.63;5.82;;;20.00;69.70;;;;;;4996200;28;20041;-79
2022/04/21 16:22:52;;;;;;;7.30;5.43;;;20.00;70.30;;;;;;4978429;28;20419;-83
2022/04/21 16:25:19;;;;;;;8.43;5.85;;;19.80;70.80;;;;;;4995023;28;20129;-84
2022/04/21 16:27:45;;;;;;;7.68;5.43;;;19.70;71.20;;;;;;4994808;28;20054;-81
2022/04/21 16:30:11;;;;;;;8.93;5.60;;;19.50;72.10;;;;;;4994687;28;20116;-81
2022/04/21 16:32:37;;;;;;;9.45;6.60;;;19.40;73.00;;;;;;4994620;28;20399;-81
2022/04/21 16:35:03;;;;;;;10.80;6.97;;;19.30;74.30;;;;;;4994697;28;20141;-83
2022/04/21 16:37:28;;;;;;;12.18;6.97;;;19.00;78.10;;;;;;4994405;28;20085;-85
2022/04/21 16:39:54;;;;;;;14.50;7.30;;;18.80;81.80;;;;;;4994434;28;20054;-81
2022/04/21 16:42:20;;;;;;;11.48;7.15;;;18.60;85.00;;;;;;4993294;28;20043;-84